Time;durP1;ratioP1;P1;durP2;ratioP2;P2;SDS_P1;SDS_P2;PMS_P1;PMS_P2;Temp;Humidity;BMP_temperature;BMP_pressure;BME280_temperature;BME280_humidity;BME280_pressure;Samples;Min_cycle;Max_cycle;Signal;HPM_P1;HPM_P2
2023/01/07 00:02:18;;;;;;;1.80;1.70;;;15.60;64.20;;;;;;5079458;28;20459;-71
2023/01/07 00:04:45;;;;;;;2.00;1.80;;;15.60;64.20;;;;;;5071676;28;20511;-71
2023/01/07 00:07:12;;;;;;;1.93;1.80;;;15.60;64.20;;;;;;5072279;28;21007;-71
2023/01/07 00:09:38;;;;;;;1.80;1.70;;;15.60;64.20;;;;;;5071579;28;20450;-71
2023/01/07 00:12:07;;;;;;;2.37;1.60;;;15.60;64.30;;;;;;5072094;28;20450;-71
2023/01/07 00:14:34;;;;;;;1.67;1.57;;;15.60;64.20;;;;;;5071520;28;20443;-71
2023/01/07 00:17:00;;;;;;;1.63;1.53;;;15.60;64.10;;;;;;5072121;28;20542;-71
2023/01/07 00:19:27;;;;;;;1.60;1.50;;;15.60;63.90;;;;;;5071967;28;20539;-71
2023/01/07 00:21:54;;;;;;;1.97;1.70;;;15.60;64.10;;;;;;5071615;28;20947;-71
2023/01/07 00:24:21;;;;;;;1.90;1.40;;;15.60;63.90;;;;;;5071809;28;20479;-71
2023/01/07 00:26:48;;;;;;;2.37;1.67;;;15.50;63.70;;;;;;5071145;28;21085;-71
2023/01/07 00:29:17;;;;;;;2.17;1.27;;;15.50;63.80;;;;;;5071864;28;20479;-71
2023/01/07 00:31:44;;;;;;;2.67;1.43;;;15.50;63.80;;;;;;5071330;28;20533;-71
2023/01/07 00:34:11;;;;;;;1.30;1.20;;;15.50;63.90;;;;;;5071822;28;20440;-71
2023/01/07 00:36:42;;;;;;;3.30;1.30;;;15.50;64.10;;;;;;5082422;28;20503;-71
2023/01/07 00:39:12;;;;;;;3.30;1.47;;;15.50;64.20;;;;;;5083959;28;20447;-71
2023/01/07 00:41:39;;;;;;;1.50;1.30;;;15.50;64.20;;;;;;5091653;28;20431;-71
2023/01/07 00:44:07;;;;;;;0.90;0.90;;;15.40;64.10;;;;;;5091964;28;20524;-71
2023/01/07 00:46:35;;;;;;;1.40;1.30;;;15.40;64.30;;;;;;5091272;28;20455;-71
2023/01/07 00:49:02;;;;;;;1.33;1.23;;;15.40;64.30;;;;;;5091996;28;20805;-71
2023/01/07 00:51:29;;;;;;;1.47;1.37;;;15.40;64.30;;;;;;5091517;28;20489;-71
2023/01/07 00:53:56;;;;;;;1.40;1.30;;;15.40;64.30;;;;;;5090571;28;20496;-71
2023/01/07 00:56:23;;;;;;;1.40;1.30;;;15.40;64.30;;;;;;5091711;28;20465;-71
2023/01/07 00:58:49;;;;;;;1.20;1.10;;;15.40;64.10;;;;;;5093217;28;20453;-71
2023/01/07 01:01:16;;;;;;;1.30;1.20;;;15.40;64.30;;;;;;5107417;28;20449;-71
2023/01/07 01:03:45;;;;;;;1.20;1.10;;;15.50;65.20;;;;;;5090742;28;20446;-71
2023/01/07 01:06:14;;;;;;;1.50;1.40;;;15.40;64.30;;;;;;5091535;28;20458;-71
2023/01/07 01:08:42;;;;;;;2.80;1.50;;;15.40;64.30;;;;;;5091263;28;20446;-71
2023/01/07 01:11:10;;;;;;;1.60;1.50;;;15.40;64.30;;;;;;5091456;28;20950;-71
2023/01/07 01:13:37;;;;;;;1.20;1.10;;;15.40;64.30;;;;;;5090622;28;20446;-71
2023/01/07 01:16:08;;;;;;;1.40;1.30;;;15.40;64.30;;;;;;5091622;28;20447;-71
2023/01/07 01:18:35;;;;;;;1.40;1.30;;;15.40;64.30;;;;;;5082181;28;20529;-71
2023/01/07 01:21:05;;;;;;;1.37;1.27;;;15.40;64.30;;;;;;5076521;28;20919;-71
2023/01/07 01:23:32;;;;;;;1.40;1.30;;;15.40;64.60;;;;;;5071447;28;20443;-71
2023/01/07 01:26:04;;;;;;;1.47;1.37;;;15.40;64.30;;;;;;5071286;28;20505;-70
2023/01/07 01:28:31;;;;;;;1.67;1.23;;;15.40;64.30;;;;;;5071306;28;20447;-71
2023/01/07 01:30:58;;;;;;;2.17;1.17;;;15.40;65.10;;;;;;5071453;28;20530;-71
2023/01/07 01:33:25;;;;;;;1.50;1.40;;;15.40;64.70;;;;;;5071040;28;20534;-71
2023/01/07 01:35:54;;;;;;;1.60;1.27;;;15.40;64.40;;;;;;5070549;28;20455;-71
2023/01/07 01:38:23;;;;;;;1.73;1.30;;;15.40;64.40;;;;;;5070950;28;20447;-71
2023/01/07 01:40:50;;;;;;;1.50;1.40;;;15.40;64.50;;;;;;5070691;28;20867;-71
2023/01/07 01:43:30;;;;;;;2.33;1.60;;;15.40;64.80;;;;;;5071213;28;20501;-71
2023/01/07 01:45:59;;;;;;;1.50;1.40;;;15.40;64.70;;;;;;5070144;28;20467;-71
2023/01/07 01:48:27;;;;;;;1.50;1.27;;;15.40;64.40;;;;;;5070998;28;20453;-71
2023/01/07 01:50:57;;;;;;;1.20;1.10;;;15.50;64.40;;;;;;5069820;28;20495;-71
2023/01/07 01:53:29;;;;;;;1.40;1.30;;;15.50;64.30;;;;;;5036540;28;20538;-71
2023/01/07 01:56:01;;;;;;;1.30;1.20;;;15.50;64.40;;;;;;5070646;28;20473;-71
2023/01/07 01:58:32;;;;;;;1.37;1.27;;;15.50;64.40;;;;;;5070993;28;20434;-71
2023/01/07 02:00:59;;;;;;;1.50;1.20;;;15.40;64.90;;;;;;5072401;28;20447;-71
2023/01/07 02:03:29;;;;;;;1.37;1.27;;;15.50;65.10;;;;;;5091191;28;20875;-71
2023/01/07 02:05:56;;;;;;;1.20;1.13;;;15.40;65.10;;;;;;5091326;28;20489;-71
2023/01/07 02:08:23;;;;;;;2.03;1.50;;;15.50;65.20;;;;;;5095003;28;20450;-71
2023/01/07 02:11:00;;;;;;;0.80;0.80;;;15.40;65.20;;;;;;5094235;28;20454;-71
2023/01/07 02:13:58;;;;;;;1.67;1.57;;;15.40;65.20;;;;;;5094621;28;20426;-71
2023/01/07 02:16:37;;;;;;;1.27;1.20;;;15.40;65.70;;;;;;5093161;28;20457;-71
2023/01/07 02:19:34;;;;;;;2.57;1.40;;;15.40;65.80;;;;;;5094925;28;20513;-71
2023/01/07 02:22:07;;;;;;;1.37;1.27;;;15.40;65.80;;;;;;5094679;28;20782;-70
2023/01/07 02:24:59;;;;;;;1.40;1.20;;;15.40;65.80;;;;;;5094459;28;20466;-71
2023/01/07 02:27:52;;;;;;;1.70;1.50;;;15.30;66.10;;;;;;5094242;28;20466;-71
2023/01/07 02:30:39;;;;;;;1.53;1.43;;;15.30;66.00;;;;;;5093816;28;20537;-71
2023/01/07 02:33:26;;;;;;;2.57;1.57;;;15.30;66.30;;;;;;5094438;28;20435;-71
2023/01/07 02:36:08;;;;;;;1.60;1.50;;;15.30;66.10;;;;;;5093863;28;20782;-71
2023/01/07 02:38:46;;;;;;;1.40;1.30;;;15.30;65.70;;;;;;5094261;28;20969;-71
2023/01/07 02:41:23;;;;;;;1.60;1.50;;;15.30;65.50;;;;;;5094059;28;20438;-71
2023/01/07 02:43:56;;;;;;;1.40;1.30;;;15.30;65.10;;;;;;5093700;28;20435;-71
2023/01/07 02:46:42;;;;;;;2.33;1.27;;;15.30;65.80;;;;;;5094033;28;20958;-71
2023/01/07 02:49:14;;;;;;;1.27;1.20;;;15.30;65.60;;;;;;5072958;28;20463;-71
2023/01/07 02:51:42;;;;;;;1.60;1.40;;;15.30;64.60;;;;;;5072941;28;20490;-71
2023/01/07 02:54:13;;;;;;;1.23;1.17;;;15.30;64.70;;;;;;5073838;28;20504;-71
2023/01/07 02:57:09;;;;;;;1.50;1.23;;;15.30;64.70;;;;;;5077420;28;20428;-71
2023/01/07 03:00:02;;;;;;;1.30;1.20;;;15.30;64.80;;;;;;5097711;28;20919;-71
2023/01/07 03:02:47;;;;;;;1.40;1.30;;;15.30;64.90;;;;;;5078810;28;20451;-71
2023/01/07 03:05:29;;;;;;;1.50;1.40;;;15.30;64.90;;;;;;5073647;28;20481;-71
2023/01/07 03:08:09;;;;;;;1.43;1.20;;;15.30;65.10;;;;;;5072824;28;20432;-71
2023/01/07 03:10:43;;;;;;;1.37;1.27;;;15.30;65.10;;;;;;5073555;28;20427;-71
2023/01/07 03:13:16;;;;;;;1.43;1.33;;;15.30;65.40;;;;;;5073375;28;20427;-71
2023/01/07 03:15:47;;;;;;;1.37;1.30;;;15.30;65.40;;;;;;5072614;28;20424;-71
2023/01/07 03:18:18;;;;;;;1.20;1.10;;;15.30;65.60;;;;;;5072315;28;20435;-71
2023/01/07 03:20:50;;;;;;;1.10;1.10;;;15.30;65.50;;;;;;5072684;28;20466;-71
2023/01/07 03:23:22;;;;;;;1.20;1.20;;;15.30;65.50;;;;;;5073462;28;20440;-71
2023/01/07 03:25:53;;;;;;;1.60;1.40;;;15.30;65.60;;;;;;5072116;28;20467;-71
2023/01/07 03:28:26;;;;;;;1.20;1.20;;;15.20;65.50;;;;;;5077416;28;20532;-71
2023/01/07 03:30:54;;;;;;;1.50;1.40;;;15.30;65.60;;;;;;5092747;28;20430;-71
2023/01/07 03:33:27;;;;;;;1.47;1.37;;;15.20;65.70;;;;;;5093148;28;20457;-71
2023/01/07 03:35:59;;;;;;;1.30;1.20;;;15.20;65.60;;;;;;5092391;28;20426;-70
2023/01/07 03:38:28;;;;;;;1.40;1.30;;;15.20;65.80;;;;;;5093372;28;20427;-71
2023/01/07 03:40:55;;;;;;;1.50;1.40;;;15.20;65.80;;;;;;5092602;28;20449;-71
2023/01/07 03:43:22;;;;;;;1.50;1.40;;;15.20;65.80;;;;;;5092691;28;20533;-71
2023/01/07 03:45:51;;;;;;;2.10;1.60;;;15.20;65.80;;;;;;5092256;28;20556;-71
2023/01/07 03:48:18;;;;;;;2.17;1.57;;;15.20;66.70;;;;;;5092874;28;20450;-71
2023/01/07 03:50:45;;;;;;;1.40;1.30;;;15.20;66.00;;;;;;5039817;28;20478;-71
2023/01/07 03:53:13;;;;;;;1.50;1.40;;;15.20;66.10;;;;;;5092636;28;20453;-69
2023/01/07 03:55:40;;;;;;;1.50;1.40;;;15.20;66.10;;;;;;5092968;28;20446;-71
2023/01/07 03:58:06;;;;;;;2.27;1.90;;;15.20;66.10;;;;;;5106906;28;20806;-70
2023/01/07 04:00:33;;;;;;;1.43;1.30;;;15.20;66.20;;;;;;5113006;28;20805;-71
2023/01/07 04:03:02;;;;;;;2.37;1.30;;;15.20;66.10;;;;;;5093334;28;20537;-72
2023/01/07 04:05:29;;;;;;;2.13;1.30;;;15.20;66.00;;;;;;5092800;28;20486;-71
2023/01/07 04:07:56;;;;;;;1.43;1.30;;;15.20;66.10;;;;;;5091794;28;20447;-71
2023/01/07 04:10:24;;;;;;;1.47;1.37;;;15.20;66.10;;;;;;5092617;28;20457;-71
2023/01/07 04:12:51;;;;;;;2.03;1.33;;;15.20;66.90;;;;;;5092072;28;20449;-71
2023/01/07 04:15:18;;;;;;;1.40;1.30;;;15.20;66.40;;;;;;5092435;28;20446;-71
2023/01/07 04:17:45;;;;;;;1.40;1.30;;;15.20;66.40;;;;;;5091837;28;20453;-71
2023/01/07 04:20:12;;;;;;;2.43;1.63;;;15.20;66.30;;;;;;5080084;28;20455;-71
2023/01/07 04:22:38;;;;;;;2.87;1.83;;;15.20;66.10;;;;;;5071874;28;20461;-71
2023/01/07 04:25:06;;;;;;;1.50;1.40;;;15.10;66.00;;;;;;5071334;28;20487;-71
2023/01/07 04:27:34;;;;;;;2.10;1.20;;;15.10;66.10;;;;;;5071640;28;20998;-71
2023/01/07 04:30:01;;;;;;;1.30;1.20;;;15.10;66.10;;;;;;5071166;28;20447;-71
2023/01/07 04:32:28;;;;;;;1.80;1.53;;;15.10;66.20;;;;;;5072218;28;20455;-71
2023/01/07 04:34:55;;;;;;;1.40;1.30;;;15.10;66.20;;;;;;5071203;28;20451;-71
2023/01/07 04:37:22;;;;;;;1.73;1.50;;;15.10;66.10;;;;;;5071858;28;20447;-71
2023/01/07 04:39:49;;;;;;;1.40;1.30;;;15.10;66.30;;;;;;5071175;28;20447;-71
2023/01/07 04:42:15;;;;;;;1.20;1.20;;;15.10;66.60;;;;;;5071750;28;20447;-71
2023/01/07 04:44:44;;;;;;;1.70;1.60;;;15.10;66.80;;;;;;5071369;28;20448;-71
2023/01/07 04:47:10;;;;;;;1.37;1.20;;;15.10;66.90;;;;;;5071441;28;20445;-71
2023/01/07 04:49:37;;;;;;;1.40;1.30;;;15.10;66.90;;;;;;5071546;28;20451;-71
2023/01/07 04:52:05;;;;;;;1.50;1.40;;;15.10;67.00;;;;;;5071109;28;20517;-71
2023/01/07 04:54:31;;;;;;;1.47;1.37;;;15.10;67.00;;;;;;5071277;28;20443;-71
2023/01/07 04:56:58;;;;;;;1.03;1.00;;;15.10;67.20;;;;;;5080008;28;20444;-71
2023/01/07 04:59:25;;;;;;;1.40;1.30;;;15.00;66.40;;;;;;5112003;28;20445;-71
2023/01/07 05:01:53;;;;;;;2.63;1.60;;;14.90;66.20;;;;;;5101926;28;20446;-71
2023/01/07 05:04:20;;;;;;;1.63;1.53;;;14.80;66.40;;;;;;5092210;28;20849;-71
2023/01/07 05:06:47;;;;;;;1.93;1.73;;;14.80;66.60;;;;;;5090685;28;20478;-71
2023/01/07 05:09:14;;;;;;;1.70;1.40;;;14.90;66.80;;;;;;5091560;28;20461;-71
2023/01/07 05:11:41;;;;;;;3.03;1.70;;;14.90;66.70;;;;;;5091799;28;20452;-71
2023/01/07 05:14:09;;;;;;;1.90;1.50;;;14.90;66.80;;;;;;5090806;28;20450;-71
2023/01/07 05:16:35;;;;;;;1.47;1.30;;;14.90;66.40;;;;;;5091401;28;20454;-71
2023/01/07 05:19:04;;;;;;;1.13;1.03;;;14.90;66.10;;;;;;5090760;28;20887;-71
2023/01/07 05:21:30;;;;;;;1.33;1.20;;;14.90;65.20;;;;;;5091579;28;20462;-71
2023/01/07 05:23:57;;;;;;;1.00;1.00;;;14.90;64.50;;;;;;5090663;28;20965;-71
2023/01/07 05:26:24;;;;;;;1.40;1.30;;;15.00;63.60;;;;;;5091096;28;20471;-71
2023/01/07 05:28:53;;;;;;;1.00;1.00;;;15.00;63.60;;;;;;5090648;28;20843;-71
2023/01/07 05:31:20;;;;;;;1.07;1.00;;;15.00;63.20;;;;;;5091516;28;20456;-71
2023/01/07 05:33:47;;;;;;;0.90;0.90;;;15.10;63.20;;;;;;5090682;28;20460;-71
2023/01/07 05:36:15;;;;;;;1.33;1.23;;;15.00;62.40;;;;;;5091245;28;20449;-71
2023/01/07 05:38:42;;;;;;;0.80;0.80;;;15.10;62.20;;;;;;5091105;28;20438;-71
2023/01/07 05:41:09;;;;;;;1.37;1.27;;;15.10;61.90;;;;;;5092126;28;21021;-71
2023/01/07 05:43:36;;;;;;;0.90;0.90;;;15.10;61.60;;;;;;5095238;28;20450;-71
2023/01/07 05:46:03;;;;;;;1.30;1.20;;;15.20;61.70;;;;;;5094886;28;20902;-71
2023/01/07 05:48:29;;;;;;;1.30;1.20;;;15.20;61.50;;;;;;5095522;28;20450;-72
2023/01/07 05:50:56;;;;;;;1.20;1.10;;;15.20;61.50;;;;;;5093990;28;20480;-71
2023/01/07 05:53:24;;;;;;;1.03;1.03;;;15.20;61.20;;;;;;5095140;28;20446;-71
2023/01/07 05:55:55;;;;;;;1.30;1.20;;;15.20;61.00;;;;;;5094574;28;20442;-71
2023/01/07 05:58:23;;;;;;;1.00;0.90;;;15.20;60.80;;;;;;5094986;28;20789;-71
2023/01/07 06:00:49;;;;;;;1.10;1.00;;;15.20;60.90;;;;;;5093662;28;20455;-71
2023/01/07 06:03:16;;;;;;;0.97;0.97;;;15.30;61.20;;;;;;5074988;28;20479;-71
2023/01/07 06:05:43;;;;;;;1.40;1.30;;;15.30;61.00;;;;;;5074713;28;20483;-71
2023/01/07 06:08:10;;;;;;;1.50;1.40;;;15.30;60.60;;;;;;5074198;28;20814;-71
2023/01/07 06:10:39;;;;;;;1.30;1.20;;;15.30;60.60;;;;;;5074644;28;20497;-71
2023/01/07 06:13:05;;;;;;;1.30;1.20;;;15.30;60.30;;;;;;5073773;28;20455;-71
2023/01/07 06:15:32;;;;;;;1.40;0.90;;;15.30;60.20;;;;;;5074748;28;20458;-71
2023/01/07 06:17:59;;;;;;;1.70;1.20;;;15.30;60.20;;;;;;5074141;28;20466;-71
2023/01/07 06:20:33;;;;;;;1.03;1.03;;;15.30;60.20;;;;;;5074584;28;20793;-71
2023/01/07 06:23:00;;;;;;;1.00;1.00;;;15.30;60.30;;;;;;5073962;28;20428;-71
2023/01/07 06:25:28;;;;;;;1.10;1.10;;;15.30;60.00;;;;;;5073424;28;20559;-71
2023/01/07 06:27:56;;;;;;;1.13;1.00;;;15.30;60.00;;;;;;5073562;28;20482;-71
2023/01/07 06:30:23;;;;;;;0.80;0.80;;;15.30;59.80;;;;;;5074348;28;20451;-71
2023/01/07 06:32:50;;;;;;;0.77;0.77;;;15.30;59.80;;;;;;5074721;28;20486;-71
2023/01/07 06:35:17;;;;;;;1.03;1.00;;;15.30;59.90;;;;;;5087827;28;20461;-71
2023/01/07 06:37:43;;;;;;;1.10;1.00;;;15.30;59.80;;;;;;5094143;28;20442;-71
2023/01/07 06:40:11;;;;;;;1.00;0.90;;;15.30;59.80;;;;;;5093563;28;20453;-71
2023/01/07 06:42:38;;;;;;;1.17;1.00;;;15.20;59.70;;;;;;5094544;28;21011;-71
2023/01/07 06:45:07;;;;;;;1.17;1.10;;;15.20;59.70;;;;;;5093837;28;20450;-71
2023/01/07 06:47:34;;;;;;;1.17;1.07;;;15.20;59.80;;;;;;5094182;28;20838;-71
2023/01/07 06:50:01;;;;;;;1.20;1.10;;;15.20;59.80;;;;;;5093498;28;20493;-71
2023/01/07 06:52:28;;;;;;;1.27;1.17;;;15.20;59.90;;;;;;5092682;28;20450;-71
2023/01/07 06:54:55;;;;;;;1.00;1.00;;;15.20;60.00;;;;;;5093128;28;20453;-71
2023/01/07 06:57:21;;;;;;;1.70;1.00;;;15.20;60.10;;;;;;5102044;28;20441;-71
2023/01/07 06:59:49;;;;;;;0.97;0.90;;;15.10;60.00;;;;;;5103932;28;20450;-71
2023/01/07 07:02:21;;;;;;;1.80;0.90;;;15.10;60.10;;;;;;5081181;28;20447;-71
2023/01/07 07:04:49;;;;;;;1.40;1.30;;;15.10;60.00;;;;;;5073992;28;20783;-71
2023/01/07 07:07:16;;;;;;;0.90;0.90;;;15.10;60.20;;;;;;5073129;28;20490;-71
2023/01/07 07:09:43;;;;;;;1.10;1.10;;;15.10;60.30;;;;;;5073755;28;20450;-71
2023/01/07 07:12:09;;;;;;;1.20;1.10;;;15.10;60.00;;;;;;5075611;28;20554;-71
2023/01/07 07:14:37;;;;;;;1.17;1.03;;;15.10;60.00;;;;;;5073496;28;20457;-71
2023/01/07 07:17:06;;;;;;;1.10;1.07;;;15.10;59.80;;;;;;5072978;28;20477;-71
2023/01/07 07:19:34;;;;;;;0.93;0.93;;;15.10;59.50;;;;;;5038592;28;20447;-71
2023/01/07 07:22:01;;;;;;;1.20;1.10;;;15.10;59.60;;;;;;5072821;28;20515;-71
2023/01/07 07:24:29;;;;;;;1.20;1.10;;;15.10;59.60;;;;;;5073998;28;20458;-71
2023/01/07 07:26:56;;;;;;;0.93;0.83;;;15.10;59.60;;;;;;5072852;28;20569;-71
2023/01/07 07:29:23;;;;;;;1.10;1.00;;;15.00;59.60;;;;;;5073432;28;20788;-71
2023/01/07 07:31:49;;;;;;;1.03;0.93;;;15.00;59.60;;;;;;5073241;28;20447;-71
2023/01/07 07:34:16;;;;;;;0.90;0.90;;;15.00;59.50;;;;;;5072983;28;20451;-71
2023/01/07 07:36:45;;;;;;;0.87;0.87;;;15.00;59.50;;;;;;5072662;28;20534;-71
2023/01/07 07:39:12;;;;;;;0.87;0.70;;;15.00;59.40;;;;;;5072673;28;20686;-71
2023/01/07 07:41:39;;;;;;;0.83;0.83;;;15.00;59.50;;;;;;5073055;28;20454;-71
2023/01/07 07:44:05;;;;;;;0.90;0.90;;;15.00;59.40;;;;;;5072365;28;20451;-71
2023/01/07 07:46:32;;;;;;;1.27;1.17;;;15.10;59.40;;;;;;5072577;28;20518;-71
2023/01/07 07:48:59;;;;;;;1.20;0.97;;;15.10;59.40;;;;;;5072054;28;20482;-71
2023/01/07 07:51:26;;;;;;;0.90;0.90;;;15.10;59.30;;;;;;5072241;28;21065;-71
2023/01/07 07:53:54;;;;;;;1.00;1.00;;;15.10;59.10;;;;;;5072511;28;20454;-71
2023/01/07 07:56:21;;;;;;;1.30;1.10;;;15.10;59.10;;;;;;5086328;28;20446;-71
2023/01/07 07:58:48;;;;;;;1.10;1.03;;;15.20;59.20;;;;;;5113043;28;20798;-71
2023/01/07 08:01:15;;;;;;;2.17;1.00;;;15.20;59.10;;;;;;5108339;28;20478;-71
2023/01/07 08:03:42;;;;;;;0.90;0.90;;;15.20;58.80;;;;;;5092207;28;20458;-71
2023/01/07 08:06:11;;;;;;;2.30;1.00;;;15.10;58.90;;;;;;5092042;28;20488;-71
2023/01/07 08:08:38;;;;;;;1.80;1.30;;;15.10;59.00;;;;;;5092645;28;20450;-71
2023/01/07 08:11:06;;;;;;;1.53;1.20;;;15.00;59.00;;;;;;5092129;28;20450;-71
2023/01/07 08:13:33;;;;;;;1.10;1.10;;;15.00;59.10;;;;;;5092867;28;20867;-71
2023/01/07 08:16:00;;;;;;;1.20;1.10;;;15.00;59.00;;;;;;5091773;28;20534;-71
2023/01/07 08:18:27;;;;;;;1.40;1.20;;;15.00;59.00;;;;;;5092393;28;20446;-71
2023/01/07 08:20:54;;;;;;;1.17;1.07;;;15.00;58.90;;;;;;5092528;28;20484;-71
2023/01/07 08:23:21;;;;;;;1.27;1.17;;;15.10;58.90;;;;;;5092714;28;20454;-71
2023/01/07 08:25:48;;;;;;;0.93;0.90;;;15.00;58.50;;;;;;5092180;28;20534;-71
2023/01/07 08:28:16;;;;;;;2.60;1.20;;;15.00;58.70;;;;;;5091501;28;20579;-71
2023/01/07 08:30:43;;;;;;;1.43;1.20;;;15.00;58.80;;;;;;5092224;28;20537;-71
2023/01/07 08:33:10;;;;;;;0.90;0.90;;;15.00;58.70;;;;;;5091425;28;20450;-71
2023/01/07 08:35:37;;;;;;;1.10;1.00;;;15.00;58.60;;;;;;5092006;28;20450;-71
2023/01/07 08:38:06;;;;;;;1.60;0.90;;;15.00;58.60;;;;;;5091586;28;20451;-71
2023/01/07 08:40:34;;;;;;;1.10;1.00;;;15.00;58.40;;;;;;5092017;28;20454;-70
2023/01/07 08:43:01;;;;;;;0.97;0.97;;;15.00;58.40;;;;;;5091695;28;20454;-70
2023/01/07 08:45:31;;;;;;;0.77;0.77;;;15.00;58.40;;;;;;5091864;28;20480;-71
2023/01/07 08:47:58;;;;;;;1.40;0.97;;;15.00;58.30;;;;;;5091495;28;20478;-71
2023/01/07 08:50:26;;;;;;;0.77;0.77;;;15.00;58.50;;;;;;5091608;28;20521;-70
2023/01/07 08:52:53;;;;;;;0.70;0.70;;;15.10;58.50;;;;;;5091789;28;20474;-70
2023/01/07 08:55:20;;;;;;;0.70;0.70;;;15.00;58.40;;;;;;5091138;28;20450;-70
2023/01/07 08:57:47;;;;;;;0.93;0.83;;;15.00;58.50;;;;;;5103223;28;20438;-70
2023/01/07 09:00:16;;;;;;;1.10;1.10;;;15.00;58.50;;;;;;5111743;28;20445;-70
2023/01/07 09:02:44;;;;;;;0.90;0.90;;;15.00;58.30;;;;;;5056043;28;20560;-71
2023/01/07 09:05:11;;;;;;;0.70;0.70;;;15.00;58.50;;;;;;5070794;28;20542;-70
2023/01/07 09:07:38;;;;;;;0.80;0.80;;;14.90;58.50;;;;;;5071474;28;20485;-70
2023/01/07 09:10:06;;;;;;;0.90;0.90;;;14.90;58.70;;;;;;5071063;28;20454;-70
2023/01/07 09:12:33;;;;;;;0.60;0.60;;;14.90;58.60;;;;;;5071388;28;20501;-70
2023/01/07 09:15:00;;;;;;;1.43;0.70;;;14.90;58.70;;;;;;5070474;28;20452;-70
2023/01/07 09:17:27;;;;;;;0.83;0.83;;;15.00;58.60;;;;;;5071335;28;20448;-71
2023/01/07 09:19:55;;;;;;;1.07;0.90;;;15.00;58.60;;;;;;5071141;28;20459;-71
2023/01/07 09:22:22;;;;;;;0.90;0.90;;;15.00;58.40;;;;;;5071439;28;20492;-71
2023/01/07 09:24:49;;;;;;;1.00;0.90;;;14.90;58.50;;;;;;5071742;28;20466;-71
2023/01/07 09:27:16;;;;;;;0.80;0.70;;;14.90;58.40;;;;;;5070211;28;21066;-71
2023/01/07 09:29:42;;;;;;;1.10;0.90;;;15.00;59.10;;;;;;5071403;28;20447;-71
2023/01/07 09:32:09;;;;;;;0.80;0.80;;;15.00;58.60;;;;;;5070838;28;20451;-71
2023/01/07 09:34:37;;;;;;;1.30;1.20;;;15.00;58.50;;;;;;5071346;28;20486;-71
2023/01/07 09:37:05;;;;;;;1.57;0.93;;;15.00;58.50;;;;;;5070558;28;20439;-71
2023/01/07 09:39:32;;;;;;;1.20;1.10;;;14.90;58.50;;;;;;5071438;28;20450;-72
2023/01/07 09:42:05;;;;;;;0.87;0.83;;;14.90;58.80;;;;;;5087131;28;20480;-71
2023/01/07 09:44:54;;;;;;;0.83;0.83;;;14.90;58.90;;;;;;5091376;28;20440;-71
2023/01/07 09:47:24;;;;;;;1.20;1.00;;;14.90;58.80;;;;;;5090701;28;20470;-71
2023/01/07 09:49:55;;;;;;;0.80;0.80;;;14.90;58.80;;;;;;5091296;28;20482;-71
2023/01/07 09:52:29;;;;;;;1.23;1.00;;;15.00;58.60;;;;;;5090830;28;20847;-71
2023/01/07 09:55:02;;;;;;;0.87;0.87;;;15.00;58.80;;;;;;5091598;28;20426;-71
2023/01/07 09:57:29;;;;;;;0.90;0.90;;;15.00;58.80;;;;;;5099804;28;20438;-71
2023/01/07 09:59:56;;;;;;;0.80;0.80;;;15.10;58.80;;;;;;5111697;28;20445;-71
2023/01/07 10:02:35;;;;;;;0.83;0.83;;;15.10;58.80;;;;;;5096994;28;20451;-71
2023/01/07 10:05:23;;;;;;;0.70;0.70;;;15.20;58.80;;;;;;5090897;28;20840;-71
2023/01/07 10:07:59;;;;;;;2.90;0.90;;;15.20;58.60;;;;;;5091186;28;20462;-71
2023/01/07 10:10:30;;;;;;;0.87;0.80;;;15.20;58.60;;;;;;5091325;28;20531;-71
2023/01/07 10:13:11;;;;;;;0.70;0.70;;;15.20;58.60;;;;;;5090888;28;20929;-70
2023/01/07 10:15:51;;;;;;;0.83;0.83;;;15.30;58.50;;;;;;5091246;28;20430;-71
2023/01/07 10:18:34;;;;;;;0.90;0.90;;;15.30;58.40;;;;;;5090652;28;20700;-71
2023/01/07 10:21:12;;;;;;;1.47;0.80;;;15.30;58.20;;;;;;5090191;28;20461;-71
2023/01/07 10:23:44;;;;;;;0.70;0.70;;;15.30;58.50;;;;;;5091031;28;20974;-71
2023/01/07 10:26:18;;;;;;;0.90;0.90;;;15.40;58.50;;;;;;5090465;28;20781;-71
2023/01/07 10:28:48;;;;;;;0.90;0.90;;;15.40;58.40;;;;;;5094667;28;20504;-71
2023/01/07 10:31:18;;;;;;;0.83;0.83;;;15.50;58.50;;;;;;5093989;28;20507;-71
2023/01/07 10:33:47;;;;;;;1.10;1.00;;;15.60;58.40;;;;;;5094843;28;20446;-71
2023/01/07 10:36:21;;;;;;;0.90;0.90;;;15.60;58.10;;;;;;5093904;28;20450;-71
2023/01/07 10:39:02;;;;;;;0.70;0.70;;;15.70;58.10;;;;;;5094748;28;20449;-71
2023/01/07 10:41:37;;;;;;;1.30;1.20;;;15.80;58.20;;;;;;5094140;28;20487;-71
2023/01/07 10:44:21;;;;;;;1.20;1.10;;;15.70;57.90;;;;;;5093681;28;20989;-71
2023/01/07 10:46:58;;;;;;;1.50;1.40;;;15.70;57.70;;;;;;5093991;28;20426;-71
2023/01/07 10:49:50;;;;;;;1.20;1.10;;;15.60;57.50;;;;;;5094195;28;20894;-72
2023/01/07 10:52:31;;;;;;;1.20;1.10;;;15.60;57.90;;;;;;5093787;28;20435;-71
2023/01/07 10:55:30;;;;;;;1.20;1.10;;;15.60;58.10;;;;;;5094008;28;20517;-71
2023/01/07 10:57:57;;;;;;;1.40;1.30;;;15.60;57.70;;;;;;5107240;28;20829;-71
2023/01/07 11:00:25;;;;;;;1.30;1.20;;;15.70;58.10;;;;;;5113891;28;20820;-71
2023/01/07 11:02:55;;;;;;;1.30;1.20;;;15.80;58.10;;;;;;5096327;28;21029;-71
2023/01/07 11:05:24;;;;;;;1.30;1.20;;;15.80;57.90;;;;;;5093743;28;20454;-71
2023/01/07 11:08:01;;;;;;;1.00;1.00;;;15.80;57.70;;;;;;5093683;28;20478;-71
2023/01/07 11:10:34;;;;;;;1.00;1.00;;;15.90;57.60;;;;;;5094077;28;20485;-71
2023/01/07 11:13:06;;;;;;;1.30;1.20;;;16.00;57.50;;;;;;5093838;28;20466;-71
2023/01/07 11:15:37;;;;;;;0.97;0.97;;;16.10;57.40;;;;;;5093836;28;20433;-71
2023/01/07 11:18:12;;;;;;;1.33;1.23;;;16.10;56.90;;;;;;5093218;28;20968;-71
2023/01/07 11:20:47;;;;;;;0.90;0.90;;;16.20;56.80;;;;;;5092429;28;20461;-71
2023/01/07 11:23:21;;;;;;;1.37;1.27;;;16.30;56.60;;;;;;5092854;28;20450;-71
2023/01/07 11:25:49;;;;;;;1.37;1.27;;;16.40;56.60;;;;;;5094058;28;20487;-71
2023/01/07 11:28:18;;;;;;;1.10;1.00;;;16.50;56.40;;;;;;5092883;28;20572;-71
2023/01/07 11:30:56;;;;;;;1.63;1.20;;;16.70;56.40;;;;;;5093475;28;20469;-71
2023/01/07 11:33:26;;;;;;;1.10;1.00;;;16.80;56.00;;;;;;5093332;28;20436;-71
2023/01/07 11:35:54;;;;;;;1.27;1.17;;;16.90;55.70;;;;;;5093948;28;20805;-71
2023/01/07 11:38:28;;;;;;;1.20;1.10;;;17.00;55.40;;;;;;5091814;28;20453;-71
2023/01/07 11:40:59;;;;;;;1.40;1.30;;;17.10;55.20;;;;;;5093549;28;20453;-71
2023/01/07 11:43:31;;;;;;;1.60;1.50;;;17.10;54.90;;;;;;5092427;28;21005;-70
2023/01/07 11:46:00;;;;;;;1.53;1.40;;;17.20;54.70;;;;;;5093395;28;20427;-71
2023/01/07 11:48:32;;;;;;;1.93;1.60;;;17.20;54.60;;;;;;5092828;28;20854;-70
2023/01/07 11:51:00;;;;;;;1.60;1.50;;;17.30;54.50;;;;;;5092744;28;20493;-71
2023/01/07 11:53:33;;;;;;;1.50;1.40;;;17.20;53.90;;;;;;5092051;28;20450;-71
2023/01/07 11:56:05;;;;;;;1.20;1.10;;;17.40;54.20;;;;;;5093045;28;20427;-71
2023/01/07 11:58:33;;;;;;;1.43;1.33;;;17.50;54.40;;;;;;5110120;28;20438;-71
2023/01/07 12:01:16;;;;;;;1.47;1.37;;;17.60;53.70;;;;;;5111257;28;20450;-71
2023/01/07 12:03:45;;;;;;;2.00;1.80;;;17.70;52.80;;;;;;5093046;28;20435;-71
2023/01/07 12:06:20;;;;;;;1.50;1.40;;;17.70;52.90;;;;;;5091917;28;20458;-71
2023/01/07 12:08:54;;;;;;;1.60;1.17;;;17.80;52.40;;;;;;5092437;28;20478;-71
2023/01/07 12:11:30;;;;;;;1.50;1.40;;;17.80;52.20;;;;;;5092252;28;20427;-71
2023/01/07 12:14:06;;;;;;;1.23;1.13;;;17.80;51.70;;;;;;5092257;28;20546;-71
2023/01/07 12:16:33;;;;;;;1.50;1.40;;;17.80;52.00;;;;;;5093086;28;20430;-71
2023/01/07 12:19:13;;;;;;;1.43;1.33;;;17.80;51.60;;;;;;5092537;28;20445;-71
2023/01/07 12:21:58;;;;;;;1.50;1.40;;;18.00;51.10;;;;;;5092784;28;20540;-71
2023/01/07 12:24:51;;;;;;;1.23;1.20;;;18.30;51.00;;;;;;5091708;28;20435;-71
2023/01/07 12:27:30;;;;;;;1.67;1.57;;;19.00;49.30;;;;;;5087561;28;21021;-71
2023/01/07 12:30:09;;;;;;;1.27;1.17;;;19.40;49.00;;;;;;5092456;28;20845;-71
2023/01/07 12:32:51;;;;;;;1.37;1.27;;;20.40;48.50;;;;;;5092548;28;20188;-71
2023/01/07 12:35:23;;;;;;;1.47;1.37;;;21.20;46.20;;;;;;5091722;28;20278;-72
2023/01/07 12:37:55;;;;;;;1.10;1.10;;;22.30;46.40;;;;;;5092444;28;20272;-71
2023/01/07 12:40:32;;;;;;;1.20;1.10;;;23.50;45.00;;;;;;5091242;28;20193;-72
2023/01/07 12:43:05;;;;;;;1.67;1.50;;;25.00;42.80;;;;;;5092068;28;20238;-72
2023/01/07 12:45:40;;;;;;;1.30;1.20;;;26.60;40.50;;;;;;5092113;28;20276;-72
2023/01/07 12:48:16;;;;;;;1.70;1.60;;;28.20;38.30;;;;;;5091702;28;20568;-71
2023/01/07 12:50:47;;;;;;;1.67;1.57;;;28.90;36.70;;;;;;5091455;28;20282;-71
2023/01/07 12:53:19;;;;;;;1.40;1.30;;;30.30;35.70;;;;;;5091225;28;20275;-71
2023/01/07 12:55:50;;;;;;;1.50;1.40;;;31.90;33.80;;;;;;5091704;28;20558;-71
2023/01/07 12:58:22;;;;;;;1.53;1.43;;;33.30;32.10;;;;;;5106818;28;20200;-71
2023/01/07 13:00:55;;;;;;;1.60;1.50;;;34.40;29.90;;;;;;5111256;28;20275;-71
2023/01/07 13:03:34;;;;;;;1.60;1.50;;;35.50;28.60;;;;;;5091171;28;20629;-72
2023/01/07 13:06:07;;;;;;;2.00;1.60;;;36.20;27.20;;;;;;5091135;28;20204;-71